Upper Lake, CA

7:29 AM PST on February 27, 2015 (GMT -0800)
Chico Municipal | Change Station
CLOSE
Current Station
Airport
Location: Chico,
Elevation: 240 ft
Nearby Weather Stations

Elev 240 ft 39.80 °N, 121.86 °W | Updated 39 minutes ago

Partly Cloudy
Partly Cloudy
45 °F
Feels Like 45 °F
N
0
Wind Variable Wind from North

Today
High -- | Low -- °F
--% Chance of Precip.
Yesterday
High -- | Low -- °F
Precip. -- in
6:47 AM 6:01 PM
Waxing Gibbous, 69% visible
Pressure 29.82 in
Visibility 80.0 miles
Clouds Few 10000 ft
Scattered Clouds 18000 ft
Dew Point 39 °F
Humidity 81%
Rainfall 0.00 in
Snow Depth Not available.
UV 0 out of 12
Pollen 8.00 out of 12
Air Quality Not available.
Flu Activity Not available.
METAR KCIC 271450Z 00000KT 80SM FEW100 SCT180 07/04 A2982

More Conditions Fewer Conditions

Pressure 29.82 in
Visibility 80.0 miles
Clouds Few 10000 ft
Scattered Clouds 18000 ft
Dew Point 39 °F
Humidity 81%
Rainfall 0.00 in
Snow Depth Not available.
UV 0 out of 12
Pollen 8.00 out of 12
Air Quality Not available.
Flu Activity Not available.
METAR KCIC 271450Z 00000KT 80SM FEW100 SCT180 07/04 A2982

More Conditions Fewer Conditions

10-Day Weather Forecast

Almanac

Astronomy

Feb. 27, 2015 Rise Set
Actual Time
Civil Twilight
Nautical Twilight
Astronomical Twilight
Moon
Length of Visible Light
Length of Day
Tomorrow will be .
, % of the Moon is Illuminated

Today's Extremes

State Highs State Lows

Community

WunderPhotos

Upload Photos

1,800,694 photos uploaded!

WunderBlogs® & News

Nearby

Air Quality

  Air Quality AQ Index Pollutant
Not available.

Snow Depth

Station Depth Elevation

Earthquake Activity

City Distance Mag. Time & Date
Minimum magnitude displayed is 2.5.

Coastal Water Temperatures

Place Temperature

Nearby Weather Stations